createdAt,value
2022-11-14T00:00:34.920Z,10.67
2022-11-14T00:03:03.641Z,10.83
2022-11-14T00:05:31.665Z,11.23
2022-11-14T00:07:59.589Z,10.83
2022-11-14T00:10:27.567Z,10.90
2022-11-14T00:12:55.448Z,11.00
2022-11-14T00:15:24.712Z,10.83
2022-11-14T00:17:52.618Z,10.20
2022-11-14T00:20:20.775Z,10.90
2022-11-14T00:22:48.649Z,10.40
2022-11-14T00:25:16.651Z,10.57
2022-11-14T00:27:44.545Z,10.87
2022-11-14T00:30:12.898Z,10.90
2022-11-14T00:32:42.176Z,10.70
2022-11-14T00:35:10.788Z,10.50
2022-11-14T00:37:38.689Z,12.23
2022-11-14T00:40:07.334Z,11.00
2022-11-14T00:42:35.738Z,11.07
2022-11-14T00:45:03.702Z,11.17
2022-11-14T00:47:31.666Z,10.53
2022-11-14T00:50:00.917Z,10.77
2022-11-14T00:52:28.829Z,11.67
2022-11-14T00:54:56.730Z,10.73
2022-11-14T00:57:24.615Z,10.43
2022-11-14T00:59:55.618Z,11.70
2022-11-14T01:02:23.945Z,11.80
2022-11-14T01:04:51.867Z,11.20
2022-11-14T01:07:21.182Z,11.63
2022-11-14T01:09:49.051Z,12.10
2022-11-14T01:12:16.935Z,11.90
2022-11-14T01:14:44.890Z,10.87
2022-11-14T01:17:12.780Z,11.90
2022-11-14T01:19:40.692Z,11.20
2022-11-14T01:22:08.574Z,11.47
2022-11-14T01:24:37.909Z,11.10
2022-11-14T01:27:05.868Z,10.93
2022-11-14T01:29:33.772Z,11.37
2022-11-14T01:32:01.660Z,10.47
2022-11-14T01:34:30.474Z,11.80
2022-11-14T01:36:58.400Z,11.40
2022-11-14T01:39:27.493Z,11.53
2022-11-14T01:41:56.935Z,12.10
2022-11-14T01:44:45.540Z,10.53
2022-11-14T01:47:14.159Z,12.10
2022-11-14T01:49:43.867Z,12.87
2022-11-14T01:52:14.167Z,10.57
2022-11-14T01:54:47.766Z,11.33
2022-11-14T01:57:19.425Z,11.63
2022-11-14T01:59:50.422Z,11.13
2022-11-14T02:02:20.188Z,9.97
2022-11-14T02:04:51.718Z,10.57
2022-11-14T02:07:20.168Z,10.83
2022-11-14T02:09:48.928Z,10.33
2022-11-14T02:12:19.386Z,11.27
2022-11-14T02:14:49.785Z,10.73
2022-11-14T02:17:34.020Z,10.03
2022-11-14T02:20:15.505Z,11.90
2022-11-14T02:22:44.080Z,10.47
2022-11-14T02:25:14.632Z,10.97
2022-11-14T02:27:42.992Z,10.97
2022-11-14T02:30:13.413Z,11.20
2022-11-14T02:35:30.600Z,11.07
2022-11-14T02:37:58.469Z,10.63
2022-11-14T02:40:26.397Z,11.67
2022-11-14T02:42:54.386Z,10.90
2022-11-14T02:45:22.314Z,11.47
2022-11-14T02:47:50.200Z,11.77
2022-11-14T02:50:18.512Z,11.47
2022-11-14T02:52:47.787Z,12.23
2022-11-14T02:55:15.817Z,11.27
2022-11-14T02:57:43.717Z,11.60
2022-11-14T03:00:15.203Z,12.07
2022-11-14T03:02:43.515Z,10.43
2022-11-14T03:05:11.631Z,10.57
2022-11-14T03:07:39.570Z,10.53
2022-11-14T03:10:09.823Z,10.77
2022-11-14T03:12:37.779Z,11.37
2022-11-14T03:15:06.413Z,11.80
2022-11-14T03:17:35.066Z,11.00
2022-11-14T03:20:02.980Z,11.30
2022-11-14T03:22:30.875Z,13.17
2022-11-14T03:24:58.749Z,11.80
2022-11-14T03:27:28.089Z,11.13
2022-11-14T03:29:55.988Z,11.33
2022-11-14T03:32:24.087Z,10.60
2022-11-14T03:34:51.961Z,11.13
2022-11-14T03:37:19.889Z,11.27
2022-11-14T03:39:47.868Z,11.00
2022-11-14T03:42:15.756Z,11.70
2022-11-14T03:44:45.063Z,11.57
2022-11-14T03:47:12.973Z,12.80
2022-11-14T03:49:40.936Z,12.23
2022-11-14T03:52:08.816Z,12.47
2022-11-14T03:54:36.745Z,11.23
2022-11-14T03:57:04.836Z,13.27
2022-11-14T03:59:32.749Z,11.67
2022-11-14T04:02:02.435Z,12.53
2022-11-14T04:04:30.361Z,12.57
2022-11-14T04:06:58.428Z,11.70
2022-11-14T04:09:27.600Z,11.77
2022-11-14T04:11:55.481Z,11.43
2022-11-14T04:14:23.396Z,12.27
2022-11-14T04:16:51.277Z,13.73
2022-11-14T04:19:20.578Z,11.97
2022-11-14T04:21:48.493Z,12.43
2022-11-14T04:24:16.388Z,11.37
2022-11-14T04:26:44.261Z,12.67
2022-11-14T04:29:12.162Z,12.83
2022-11-14T04:31:40.052Z,13.37
2022-11-14T04:34:07.983Z,12.87
2022-11-14T04:36:37.244Z,12.43
2022-11-14T04:39:05.298Z,12.20
2022-11-14T04:41:33.223Z,13.53
2022-11-14T04:44:01.216Z,11.87
2022-11-14T04:46:29.121Z,13.20
2022-11-14T04:48:57.004Z,12.03
2022-11-14T04:51:24.912Z,12.30
2022-11-14T04:53:54.188Z,12.33
2022-11-14T04:56:23.336Z,13.33
2022-11-14T04:58:51.269Z,13.07
2022-11-14T05:01:19.215Z,11.20
2022-11-14T05:03:47.186Z,12.73
2022-11-14T05:06:15.104Z,13.03
2022-11-14T05:08:43.369Z,12.80
2022-11-14T05:11:16.644Z,12.90
2022-11-14T05:13:44.608Z,12.40
2022-11-14T05:16:12.996Z,12.73
2022-11-14T05:18:46.721Z,13.83
2022-11-14T05:21:15.653Z,12.70
2022-11-14T05:23:43.531Z,13.43
2022-11-14T05:26:13.037Z,13.60
2022-11-14T05:28:42.441Z,13.23
2022-11-14T05:31:12.395Z,11.83
2022-11-14T05:33:40.625Z,13.73
2022-11-14T05:36:10.756Z,12.47
2022-11-14T05:38:39.220Z,12.80
2022-11-14T05:41:07.717Z,11.77
2022-11-14T05:43:35.865Z,12.90
2022-11-14T05:46:06.571Z,13.17
2022-11-14T05:48:34.740Z,12.80
2022-11-14T05:51:04.868Z,12.17
2022-11-14T05:53:34.381Z,13.53
2022-11-14T05:56:02.759Z,12.67
2022-11-14T05:58:31.047Z,13.03
2022-11-14T06:01:09.157Z,12.47
2022-11-14T06:03:38.901Z,12.93
2022-11-14T06:06:09.490Z,12.77
2022-11-14T06:08:37.972Z,13.47
2022-11-14T06:11:07.287Z,12.43
2022-11-14T06:13:35.858Z,12.13
2022-11-14T06:16:04.948Z,14.50
2022-11-14T06:18:35.081Z,13.07
2022-11-14T06:21:04.217Z,12.07
2022-11-14T06:23:32.134Z,13.40
2022-11-14T06:26:01.565Z,11.73
2022-11-14T06:28:29.841Z,12.30
2022-11-14T06:30:59.489Z,12.27
2022-11-14T06:33:27.486Z,14.23
2022-11-14T06:36:00.481Z,12.43
2022-11-14T06:38:29.027Z,14.33
2022-11-14T06:41:03.548Z,12.67
2022-11-14T06:43:34.283Z,13.13
2022-11-14T06:46:02.359Z,12.30
2022-11-14T06:48:30.550Z,12.93
2022-11-14T06:51:01.111Z,12.43
2022-11-14T06:53:30.773Z,12.77
2022-11-14T06:55:59.781Z,15.27
2022-11-14T06:58:29.192Z,14.73
2022-11-14T07:00:57.542Z,14.73
2022-11-14T07:03:25.620Z,14.50
2022-11-14T07:05:53.585Z,13.43
2022-11-14T07:08:22.899Z,13.90
2022-11-14T07:10:50.777Z,14.63
2022-11-14T07:13:18.729Z,12.53
2022-11-14T07:15:52.066Z,12.53
2022-11-14T07:18:20.091Z,13.03
2022-11-14T07:20:48.040Z,12.27
2022-11-14T07:23:21.507Z,12.17
2022-11-14T07:25:52.311Z,12.33
2022-11-14T07:28:20.374Z,13.20
2022-11-14T07:30:48.322Z,13.53
2022-11-14T07:33:16.192Z,13.00
2022-11-14T07:35:44.229Z,11.83
2022-11-14T07:38:12.121Z,14.17
2022-11-14T07:40:39.995Z,12.57
2022-11-14T07:43:09.303Z,12.27
2022-11-14T07:45:37.255Z,14.93
2022-11-14T07:48:05.272Z,13.63
2022-11-14T07:50:33.192Z,13.60
2022-11-14T07:53:01.067Z,11.87
2022-11-14T07:55:28.949Z,13.07
2022-11-14T07:57:58.639Z,12.43
2022-11-14T08:00:27.955Z,14.43
2022-11-14T08:02:55.863Z,14.33
2022-11-14T08:05:23.920Z,13.10
2022-11-14T08:07:52.132Z,12.50
2022-11-14T08:10:20.505Z,12.63
2022-11-14T08:13:04.650Z,14.20
2022-11-14T08:15:38.653Z,12.23
2022-11-14T08:18:07.069Z,13.40
2022-11-14T08:20:34.964Z,11.87
2022-11-14T08:23:03.846Z,12.00
2022-11-14T08:25:32.077Z,14.37
2022-11-14T08:27:59.972Z,13.53
2022-11-14T08:30:28.110Z,12.97
2022-11-14T08:32:57.373Z,12.83
2022-11-14T08:35:25.341Z,12.20
2022-11-14T08:37:53.287Z,12.83
2022-11-14T08:40:21.260Z,12.53
2022-11-14T08:42:49.147Z,12.13
2022-11-14T08:45:17.285Z,12.47
2022-11-14T08:47:52.059Z,13.60
2022-11-14T08:50:21.375Z,13.03
2022-11-14T08:52:52.408Z,12.37
2022-11-14T08:55:20.586Z,13.17
2022-11-14T08:57:49.956Z,12.77
2022-11-14T09:00:18.653Z,12.50
2022-11-14T09:02:46.587Z,11.73
2022-11-14T09:05:14.509Z,12.17
2022-11-14T09:07:43.789Z,13.20
2022-11-14T09:10:11.764Z,13.73
2022-11-14T09:12:39.686Z,12.40
2022-11-14T09:15:08.214Z,13.27
2022-11-14T09:17:36.169Z,12.77
2022-11-14T09:20:04.508Z,13.27
2022-11-14T09:22:32.909Z,12.40
2022-11-14T09:25:02.211Z,12.80
2022-11-14T09:27:30.095Z,13.50
2022-11-14T09:29:58.072Z,14.20
2022-11-14T09:32:25.960Z,13.57
2022-11-14T09:34:53.872Z,13.83
2022-11-14T09:37:21.786Z,12.30
2022-11-14T09:39:49.676Z,11.57
2022-11-14T09:42:27.969Z,13.23
2022-11-14T09:44:57.335Z,14.33
2022-11-14T09:47:28.811Z,13.93
2022-11-14T09:50:01.968Z,13.80
2022-11-14T09:52:36.756Z,12.50
2022-11-14T09:55:12.930Z,14.63
2022-11-14T09:57:42.714Z,14.57
2022-11-14T10:00:16.299Z,14.30
2022-11-14T10:02:56.833Z,13.63
2022-11-14T10:05:43.876Z,12.30
2022-11-14T10:08:34.059Z,14.17
2022-11-14T10:11:08.122Z,12.50
2022-11-14T10:13:49.380Z,13.77
2022-11-14T10:16:21.165Z,13.93
2022-11-14T10:19:04.170Z,13.60
2022-11-14T10:21:42.208Z,13.37
2022-11-14T10:24:22.813Z,12.70
2022-11-14T10:26:58.474Z,12.27
2022-11-14T10:29:55.028Z,13.07
2022-11-14T10:32:32.684Z,13.23
2022-11-14T10:35:04.147Z,13.30
2022-11-14T10:37:34.940Z,14.40
2022-11-14T10:40:15.813Z,13.33
2022-11-14T10:42:46.806Z,12.77
2022-11-14T10:45:19.936Z,13.67
2022-11-14T10:47:50.411Z,12.53
2022-11-14T10:50:21.688Z,12.83
2022-11-14T10:52:49.897Z,13.80
2022-11-14T10:55:20.716Z,12.83
2022-11-14T10:57:50.406Z,12.57
2022-11-14T11:00:23.080Z,12.60
2022-11-14T11:02:53.451Z,12.60
2022-11-14T11:05:23.629Z,12.33
2022-11-14T11:08:36.084Z,12.70
2022-11-14T11:11:17.697Z,13.07
2022-11-14T11:13:53.010Z,12.47
2022-11-14T11:16:23.744Z,12.13
2022-11-14T11:18:51.810Z,13.70
2022-11-14T11:21:21.106Z,12.03
2022-11-14T11:23:51.355Z,12.37
2022-11-14T11:26:24.316Z,12.40
2022-11-14T11:29:16.812Z,11.67
2022-11-14T11:31:53.507Z,11.73
2022-11-14T11:34:26.180Z,13.60
2022-11-14T11:36:58.668Z,12.13
2022-11-14T11:39:29.588Z,12.97
2022-11-14T11:42:10.072Z,12.77
2022-11-14T11:44:41.415Z,11.77
2022-11-14T11:47:14.876Z,12.90
2022-11-14T11:49:51.781Z,13.00
2022-11-14T11:52:29.691Z,11.63
2022-11-14T11:55:02.313Z,11.40
2022-11-14T11:57:35.089Z,13.17
2022-11-14T12:00:07.263Z,12.20
2022-11-14T12:02:38.475Z,11.40
2022-11-14T12:05:07.163Z,12.93
2022-11-14T12:07:41.841Z,11.23
2022-11-14T12:10:18.045Z,12.43
2022-11-14T12:13:30.908Z,12.27
2022-11-14T12:16:18.270Z,12.13
2022-11-14T12:19:01.149Z,12.97
2022-11-14T12:21:38.130Z,12.30
2022-11-14T12:24:20.595Z,10.93
2022-11-14T12:27:12.711Z,11.40
2022-11-14T12:29:53.018Z,12.33
2022-11-14T12:32:28.571Z,12.23
2022-11-14T12:34:58.892Z,11.33
2022-11-14T12:37:32.850Z,11.57
2022-11-14T12:40:03.621Z,11.27
2022-11-14T12:42:32.937Z,10.77
2022-11-14T12:45:00.854Z,11.87
2022-11-14T12:47:29.688Z,12.90
2022-11-14T12:50:20.634Z,12.03
2022-11-14T12:52:50.149Z,11.43
2022-11-14T12:56:00.967Z,12.03
2022-11-14T12:58:51.695Z,11.77
2022-11-14T13:01:48.355Z,11.07
2022-11-14T13:04:36.364Z,11.03
2022-11-14T13:07:19.389Z,12.10
2022-11-14T13:10:02.649Z,12.40
2022-11-14T13:12:50.078Z,12.23
2022-11-14T13:15:43.434Z,9.83
2022-11-14T13:18:34.967Z,12.70
2022-11-14T13:21:20.680Z,11.13
2022-11-14T13:23:59.447Z,11.37
2022-11-14T13:26:43.957Z,10.03
2022-11-14T13:30:00.198Z,11.87
2022-11-14T13:33:05.055Z,11.33
2022-11-14T13:36:00.762Z,10.57
2022-11-14T13:39:00.078Z,11.20
2022-11-14T13:41:53.452Z,10.93
2022-11-14T13:44:44.960Z,12.43
2022-11-14T13:47:44.675Z,10.70
2022-11-14T13:50:13.931Z,10.47
2022-11-14T13:52:44.694Z,10.27
2022-11-14T13:55:21.841Z,10.97
2022-11-14T13:58:00.498Z,10.90
2022-11-14T14:00:31.739Z,10.67
2022-11-14T14:03:20.616Z,10.33
2022-11-14T14:06:05.106Z,9.80
2022-11-14T14:08:48.356Z,9.87
2022-11-14T14:11:38.869Z,9.93
2022-11-14T14:14:20.132Z,10.17
2022-11-14T14:16:52.725Z,10.50
2022-11-14T14:19:35.640Z,10.10
2022-11-14T14:22:05.666Z,10.53
2022-11-14T14:24:46.605Z,11.00
2022-11-14T14:27:22.075Z,9.93
2022-11-14T14:29:56.212Z,9.73
2022-11-14T14:32:25.565Z,9.37
2022-11-14T14:34:56.989Z,9.73
2022-11-14T14:37:26.521Z,9.10
2022-11-14T14:39:59.060Z,11.60
2022-11-14T14:42:34.813Z,9.87
2022-11-14T14:45:04.483Z,9.80
2022-11-14T14:47:36.063Z,9.80
2022-11-14T14:50:05.965Z,10.07
2022-11-14T14:52:36.113Z,10.77
2022-11-14T14:55:06.528Z,9.93
2022-11-14T14:57:35.816Z,10.43
2022-11-14T15:00:06.438Z,10.33
2022-11-14T15:02:34.784Z,9.60
2022-11-14T15:05:03.157Z,9.87
2022-11-14T15:07:31.345Z,10.00
2022-11-14T15:10:01.381Z,10.30
2022-11-14T15:12:31.226Z,10.83
2022-11-14T15:15:00.611Z,9.60
2022-11-14T15:17:34.487Z,10.00
2022-11-14T15:20:03.749Z,9.90
2022-11-14T15:22:32.728Z,10.13
2022-11-14T15:25:24.190Z,10.13
2022-11-14T15:27:54.973Z,9.90
2022-11-14T15:30:26.904Z,9.73
2022-11-14T15:32:56.312Z,9.97
2022-11-14T15:35:30.314Z,10.23
2022-11-14T15:38:36.930Z,9.87
2022-11-14T15:41:29.721Z,10.17
2022-11-14T15:44:02.049Z,10.13
2022-11-14T15:46:38.864Z,10.70
2022-11-14T15:49:11.047Z,10.53
2022-11-14T15:51:44.448Z,10.77
2022-11-14T15:54:29.830Z,10.07
2022-11-14T15:56:59.260Z,9.60
2022-11-14T15:59:27.988Z,10.50
2022-11-14T16:02:00.341Z,10.53
2022-11-14T16:04:31.716Z,10.60
2022-11-14T16:06:59.606Z,11.57
2022-11-14T16:09:27.558Z,12.47
2022-11-14T16:11:55.519Z,12.73
2022-11-14T16:14:23.504Z,11.60
2022-11-14T16:16:51.476Z,11.17
2022-11-14T16:19:21.986Z,11.67
2022-11-14T16:21:50.102Z,11.83
2022-11-14T16:24:19.770Z,13.33
2022-11-14T16:26:47.813Z,12.27
2022-11-14T16:29:15.734Z,11.63
2022-11-14T16:31:43.937Z,11.40
2022-11-14T16:34:16.812Z,11.13
2022-11-14T16:36:46.138Z,10.70
2022-11-14T16:39:14.460Z,11.47
2022-11-14T16:41:42.446Z,10.83
2022-11-14T16:44:15.698Z,11.17
2022-11-14T16:46:43.815Z,11.33
2022-11-14T16:49:15.155Z,10.90
2022-11-14T16:51:48.460Z,10.73
2022-11-14T16:54:19.436Z,10.23
2022-11-14T16:56:47.795Z,10.87
2022-11-14T16:59:15.883Z,10.93
2022-11-14T17:01:43.863Z,11.40
2022-11-14T17:04:12.652Z,11.23
2022-11-14T17:06:40.565Z,10.73
2022-11-14T17:09:08.546Z,10.27
2022-11-14T17:11:37.805Z,10.77
2022-11-14T17:14:05.780Z,10.87
2022-11-14T17:16:33.728Z,11.50
2022-11-14T17:19:01.643Z,10.50
2022-11-14T17:21:29.649Z,11.67
2022-11-14T17:23:58.240Z,12.30
2022-11-14T17:26:27.063Z,12.17
2022-11-14T17:28:56.376Z,11.60
2022-11-14T17:31:24.306Z,13.00
2022-11-14T17:33:52.974Z,13.47
2022-11-14T17:36:21.341Z,13.00
2022-11-14T17:38:49.285Z,12.97
2022-11-14T17:41:17.177Z,12.37
2022-11-14T17:43:45.156Z,11.57
2022-11-14T17:46:16.227Z,11.30
2022-11-14T17:48:44.641Z,11.13
2022-11-14T17:51:14.327Z,11.07
2022-11-14T17:53:42.539Z,11.50
2022-11-14T17:56:14.353Z,11.50
2022-11-14T17:58:42.626Z,11.33
2022-11-14T18:01:11.477Z,10.67
2022-11-14T18:03:40.889Z,10.53
2022-11-14T18:06:09.871Z,11.37
2022-11-14T18:08:38.232Z,10.33
2022-11-14T18:11:08.159Z,13.70
2022-11-14T18:13:36.164Z,12.40
2022-11-14T18:16:06.582Z,11.67
2022-11-14T18:18:35.385Z,12.13
2022-11-14T18:21:09.625Z,12.07
2022-11-14T18:23:38.722Z,11.63
2022-11-14T18:26:10.799Z,10.97
2022-11-14T18:28:38.933Z,11.07
2022-11-14T18:31:08.413Z,10.97
2022-11-14T18:33:36.672Z,11.20
2022-11-14T18:36:06.663Z,11.30
2022-11-14T18:38:36.216Z,11.67
2022-11-14T18:41:05.289Z,10.77
2022-11-14T18:43:34.159Z,11.47
2022-11-14T18:46:08.741Z,11.57
2022-11-14T18:48:37.710Z,10.73
2022-11-14T18:51:07.373Z,10.00
2022-11-14T18:53:37.547Z,10.43
2022-11-14T18:56:06.187Z,10.50
2022-11-14T18:58:36.088Z,10.70
2022-11-14T19:01:13.075Z,9.83
2022-11-14T19:03:41.129Z,11.20
2022-11-14T19:06:10.681Z,10.23
2022-11-14T19:08:40.191Z,9.13
2022-11-14T19:11:09.659Z,10.47
2022-11-14T19:13:37.560Z,10.47
2022-11-14T19:16:06.563Z,10.90
2022-11-14T19:18:34.970Z,12.17
2022-11-14T19:21:04.274Z,12.53
2022-11-14T19:23:32.574Z,10.77
2022-11-14T19:26:03.073Z,10.77
2022-11-14T19:28:31.157Z,13.10
2022-11-14T19:31:02.620Z,11.93
2022-11-14T19:33:30.876Z,11.40
2022-11-14T19:35:59.419Z,9.27
2022-11-14T19:38:27.662Z,10.60
2022-11-14T19:40:57.721Z,9.80
2022-11-14T19:43:30.443Z,9.93
2022-11-14T19:46:02.180Z,11.17
2022-11-14T19:48:30.157Z,11.20
2022-11-14T19:51:02.397Z,10.23
2022-11-14T19:53:31.005Z,11.23
2022-11-14T19:56:00.930Z,10.47
2022-11-14T19:58:30.493Z,9.80
2022-11-14T20:01:05.682Z,9.80
2022-11-14T20:03:34.354Z,11.23
2022-11-14T20:06:03.075Z,10.23
2022-11-14T20:08:31.329Z,10.70
2022-11-14T20:11:00.003Z,9.77
2022-11-14T20:13:32.412Z,10.43
2022-11-14T20:16:01.305Z,10.57
2022-11-14T20:18:30.579Z,11.27
2022-11-14T20:20:58.564Z,10.37
2022-11-14T20:23:27.677Z,9.27
2022-11-14T20:25:55.833Z,9.87
2022-11-14T20:28:23.846Z,10.83
2022-11-14T20:30:53.472Z,10.43
2022-11-14T20:33:21.874Z,9.87
2022-11-14T20:35:50.684Z,9.20
2022-11-14T20:38:19.467Z,11.17
2022-11-14T20:40:54.824Z,9.77
2022-11-14T20:43:23.177Z,9.80
2022-11-14T20:45:59.767Z,10.07
2022-11-14T20:48:28.573Z,11.10
2022-11-14T20:51:03.838Z,9.97
2022-11-14T20:53:32.456Z,10.00
2022-11-14T20:56:01.046Z,10.57
2022-11-14T20:58:29.661Z,11.07
2022-11-14T21:00:59.312Z,9.67
2022-11-14T21:03:27.742Z,10.50
2022-11-14T21:05:56.542Z,9.60
2022-11-14T21:08:24.484Z,9.77
2022-11-14T21:10:59.796Z,8.97
2022-11-14T21:13:45.762Z,9.70
2022-11-14T21:16:17.338Z,9.23
2022-11-14T21:18:48.178Z,9.57
2022-11-14T21:21:17.940Z,9.80
2022-11-14T21:23:46.581Z,9.77
2022-11-14T21:26:16.302Z,9.70
2022-11-14T21:28:45.721Z,8.80
2022-11-14T21:31:16.847Z,9.03
2022-11-14T21:33:44.965Z,9.00
2022-11-14T21:36:43.298Z,11.87
2022-11-14T21:39:02.432Z,9.50
2022-11-14T21:41:31.388Z,9.47
2022-11-14T21:44:00.592Z,9.33
2022-11-14T21:46:30.257Z,8.87
2022-11-14T21:49:00.549Z,9.97
2022-11-14T21:51:29.356Z,9.83
2022-11-14T21:53:59.397Z,10.10
2022-11-14T21:56:29.028Z,10.13
2022-11-14T21:59:11.250Z,11.23
2022-11-14T22:01:59.191Z,11.63
2022-11-14T22:04:27.405Z,10.90
2022-11-14T22:06:55.915Z,10.20
2022-11-14T22:09:23.926Z,9.77
2022-11-14T22:11:51.839Z,10.57
2022-11-14T22:14:19.769Z,10.93
2022-11-14T22:16:49.071Z,10.53
2022-11-14T22:19:19.766Z,10.60
2022-11-14T22:21:47.930Z,11.67
2022-11-14T22:24:15.923Z,10.80
2022-11-14T22:26:43.858Z,12.13
2022-11-14T22:29:11.990Z,9.80
2022-11-14T22:31:39.986Z,9.60
2022-11-14T22:34:09.269Z,10.43
2022-11-14T22:36:37.234Z,10.60
2022-11-14T22:39:05.714Z,9.30
2022-11-14T22:41:34.149Z,9.10
2022-11-14T22:44:02.413Z,9.23
2022-11-14T22:46:30.880Z,9.20
2022-11-14T22:48:59.276Z,9.00
2022-11-14T22:51:29.060Z,10.00
2022-11-14T22:53:58.514Z,9.37
2022-11-14T22:56:27.737Z,9.63
2022-11-14T22:58:56.004Z,9.73
2022-11-14T23:01:25.145Z,9.23
2022-11-14T23:03:56.372Z,9.37
2022-11-14T23:06:25.112Z,10.10
2022-11-14T23:08:55.214Z,9.60
2022-11-14T23:11:24.845Z,8.97
2022-11-14T23:13:54.037Z,11.53
2022-11-14T23:16:23.578Z,8.60
2022-11-14T23:18:52.365Z,11.10
2022-11-14T23:21:22.452Z,9.73
2022-11-14T23:23:54.899Z,9.53
2022-11-14T23:26:22.977Z,9.40
2022-11-14T23:28:50.876Z,9.40
2022-11-14T23:31:19.423Z,8.93
2022-11-14T23:33:47.701Z,7.67
2022-11-14T23:36:15.903Z,8.63
2022-11-14T23:38:43.827Z,8.90
2022-11-14T23:41:18.072Z,8.80
2022-11-14T23:43:46.019Z,9.53
2022-11-14T23:46:14.192Z,9.07
2022-11-14T23:48:42.370Z,8.47
2022-11-14T23:51:10.680Z,9.10
2022-11-14T23:53:39.111Z,9.37
2022-11-14T23:56:07.230Z,9.10
2022-11-14T23:58:36.484Z,8.40
